createdAt,value
2018-03-14T00:00:48.152Z,77.00
2018-03-14T00:03:16.538Z,77.40
2018-03-14T00:05:45.754Z,77.00
2018-03-14T00:08:14.903Z,77.30
2018-03-14T00:10:43.268Z,77.30
2018-03-14T00:13:11.682Z,77.30
2018-03-14T00:15:40.061Z,77.30
2018-03-14T00:18:08.475Z,77.30
2018-03-14T00:20:36.868Z,76.90
2018-03-14T00:23:05.676Z,77.10
2018-03-14T00:25:34.063Z,76.90
2018-03-14T00:28:02.453Z,77.20
2018-03-14T00:30:30.853Z,77.20
2018-03-14T00:33:00.000Z,77.00
2018-03-14T00:35:28.403Z,76.90
2018-03-14T00:37:56.770Z,77.00
2018-03-14T00:40:25.189Z,76.90
2018-03-14T00:42:54.333Z,76.80
2018-03-14T00:45:22.711Z,76.90
2018-03-14T00:47:51.141Z,76.70
2018-03-14T00:50:20.308Z,76.10
2018-03-14T00:52:48.713Z,76.10
2018-03-14T00:55:17.088Z,76.00
2018-03-14T00:57:47.006Z,76.40
2018-03-14T01:00:16.240Z,76.40
2018-03-14T01:02:44.623Z,76.30
2018-03-14T01:05:13.033Z,76.20
2018-03-14T01:07:41.410Z,76.30
2018-03-14T01:10:09.812Z,76.40
2018-03-14T01:12:38.250Z,76.30
2018-03-14T01:15:07.430Z,76.00
2018-03-14T01:17:35.822Z,76.00
2018-03-14T01:20:04.214Z,75.70
2018-03-14T01:22:32.622Z,75.90
2018-03-14T01:25:01.025Z,75.60
2018-03-14T01:27:30.199Z,75.90
2018-03-14T01:29:58.633Z,76.00
2018-03-14T01:32:27.247Z,76.10
2018-03-14T01:34:55.635Z,75.80
2018-03-14T01:37:24.025Z,75.70
2018-03-14T01:39:52.441Z,75.70
2018-03-14T01:42:20.829Z,75.70
2018-03-14T01:44:49.238Z,75.60
2018-03-14T01:47:17.760Z,75.40
2018-03-14T01:49:46.961Z,75.30
2018-03-14T01:52:16.108Z,75.40
2018-03-14T01:54:44.496Z,75.40
2018-03-14T01:57:12.897Z,75.40
2018-03-14T01:59:41.290Z,75.40
2018-03-14T02:02:10.482Z,75.50
2018-03-14T02:04:38.850Z,75.50
2018-03-14T02:07:07.454Z,75.80
2018-03-14T02:09:36.601Z,75.40
2018-03-14T02:12:04.998Z,75.30
2018-03-14T02:14:33.395Z,75.40
2018-03-14T02:17:02.544Z,75.20
2018-03-14T02:19:31.140Z,75.90
2018-03-14T02:21:59.541Z,75.30
2018-03-14T02:24:27.931Z,75.40
2018-03-14T02:26:57.102Z,75.20
2018-03-14T02:29:25.493Z,75.20
2018-03-14T02:31:54.049Z,75.30
2018-03-14T02:34:22.445Z,75.10
2018-03-14T02:37:07.466Z,75.20
2018-03-14T02:39:35.855Z,75.00
2018-03-14T02:42:04.222Z,75.30
2018-03-14T02:44:32.640Z,75.50
2018-03-14T02:47:01.026Z,75.50
2018-03-14T02:49:29.582Z,75.30
2018-03-14T02:51:57.945Z,75.50
2018-03-14T02:54:27.074Z,75.30
2018-03-14T02:56:55.461Z,75.30
2018-03-14T02:59:23.825Z,75.50
2018-03-14T03:01:52.213Z,75.20
2018-03-14T03:04:20.569Z,75.30
2018-03-14T03:06:50.658Z,75.10
2018-03-14T03:09:19.041Z,75.20
2018-03-14T03:11:48.169Z,75.70
2018-03-14T03:14:16.773Z,75.60
2018-03-14T03:16:45.146Z,75.80
2018-03-14T03:19:13.514Z,76.10
2018-03-14T03:21:41.902Z,76.50
2018-03-14T03:24:10.270Z,76.50
2018-03-14T03:26:38.693Z,76.40
2018-03-14T03:29:07.052Z,76.50
2018-03-14T03:31:35.490Z,76.60
2018-03-14T03:34:03.896Z,76.40
2018-03-14T03:36:32.259Z,76.20
2018-03-14T03:39:00.861Z,76.20
2018-03-14T03:41:29.218Z,76.20
2018-03-14T03:43:57.578Z,76.40
2018-03-14T03:46:26.729Z,76.60
2018-03-14T03:48:55.137Z,76.50
2018-03-14T03:51:23.983Z,77.00
2018-03-14T03:53:52.345Z,77.00
2018-03-14T03:56:20.722Z,77.50
2018-03-14T03:58:49.109Z,77.40
2018-03-14T04:01:17.521Z,77.70
2018-03-14T04:03:45.917Z,77.90
2018-03-14T04:06:14.298Z,77.70
2018-03-14T04:08:42.665Z,77.50
2018-03-14T04:11:11.823Z,77.70
2018-03-14T04:13:40.180Z,77.70
2018-03-14T04:16:08.781Z,77.70
2018-03-14T04:18:37.192Z,77.80
2018-03-14T04:21:05.570Z,78.00
2018-03-14T04:23:33.959Z,78.20
2018-03-14T04:26:02.338Z,78.30
2018-03-14T04:28:31.085Z,78.40
2018-03-14T04:30:59.482Z,78.50
2018-03-14T04:33:27.856Z,78.60
2018-03-14T04:35:56.242Z,78.60
2018-03-14T04:38:24.618Z,78.40
2018-03-14T04:40:53.182Z,78.20
2018-03-14T04:43:21.561Z,78.10
2018-03-14T04:45:49.933Z,78.00
2018-03-14T04:48:18.328Z,77.70
2018-03-14T04:50:46.731Z,77.20
2018-03-14T04:53:15.596Z,77.60
2018-03-14T04:55:43.953Z,77.40
2018-03-14T04:58:12.403Z,77.70
2018-03-14T05:00:41.570Z,77.80
2018-03-14T05:03:09.946Z,77.80
2018-03-14T05:05:38.741Z,77.80
2018-03-14T05:08:07.112Z,77.80
2018-03-14T05:10:35.485Z,77.70
2018-03-14T05:13:03.869Z,77.90
2018-03-14T05:15:32.237Z,77.70
2018-03-14T05:18:00.632Z,77.60
2018-03-14T05:20:29.006Z,77.90
2018-03-14T05:22:57.374Z,78.00
2018-03-14T05:25:25.766Z,78.20
2018-03-14T05:27:54.125Z,78.30
2018-03-14T05:30:22.709Z,78.30
2018-03-14T05:32:51.078Z,78.50
2018-03-14T05:35:19.460Z,78.40
2018-03-14T05:37:47.862Z,78.50
2018-03-14T05:40:16.996Z,78.60
2018-03-14T05:42:46.437Z,78.20
2018-03-14T05:45:14.816Z,78.10
2018-03-14T05:47:43.197Z,78.60
2018-03-14T05:50:11.588Z,78.80
2018-03-14T05:52:39.961Z,78.50
2018-03-14T05:55:08.653Z,78.40
2018-03-14T05:57:37.021Z,78.20
2018-03-14T06:00:05.417Z,78.10
2018-03-14T06:02:33.924Z,78.00
2018-03-14T06:05:03.177Z,77.90
2018-03-14T06:07:31.865Z,77.90
2018-03-14T06:10:00.248Z,77.60
2018-03-14T06:12:28.709Z,77.50
2018-03-14T06:14:57.104Z,77.70
2018-03-14T06:17:25.512Z,77.50
2018-03-14T06:19:53.924Z,77.20
2018-03-14T06:22:22.344Z,77.00
2018-03-14T06:24:50.709Z,76.80
2018-03-14T06:27:19.100Z,76.70
2018-03-14T06:29:47.493Z,76.80
2018-03-14T06:32:15.913Z,76.70
2018-03-14T06:34:45.034Z,76.70
2018-03-14T06:37:13.451Z,76.70
2018-03-14T06:39:41.812Z,76.70
2018-03-14T06:42:10.181Z,76.80
2018-03-14T06:44:38.757Z,76.70
2018-03-14T06:47:07.131Z,76.40
2018-03-14T06:49:35.514Z,76.80
2018-03-14T06:52:03.900Z,76.80
2018-03-14T06:54:32.269Z,76.50
2018-03-14T06:57:00.688Z,76.30
2018-03-14T06:59:46.896Z,76.20
2018-03-14T07:05:42.633Z,75.90
2018-03-14T07:08:11.056Z,76.00
2018-03-14T07:10:39.409Z,76.80
2018-03-14T07:13:08.544Z,76.00
2018-03-14T07:15:36.933Z,75.90
2018-03-14T07:18:05.298Z,76.10
2018-03-14T07:20:33.677Z,75.80
2018-03-14T07:23:02.039Z,75.30
2018-03-14T07:25:30.900Z,75.20
2018-03-14T07:28:00.038Z,75.30
2018-03-14T07:30:28.403Z,75.30
2018-03-14T07:32:56.805Z,74.90
2018-03-14T07:35:25.165Z,74.90
2018-03-14T07:37:53.557Z,74.80
2018-03-14T07:40:21.937Z,74.50
2018-03-14T07:42:50.349Z,74.70
2018-03-14T07:45:18.721Z,74.80
2018-03-14T07:47:47.106Z,74.90
2018-03-14T07:50:15.501Z,74.90
2018-03-14T07:52:44.634Z,74.20
2018-03-14T07:55:13.018Z,74.20
2018-03-14T07:57:41.381Z,74.40
2018-03-14T08:00:09.781Z,74.20
2018-03-14T08:02:38.149Z,74.30
2018-03-14T08:05:06.737Z,74.30
2018-03-14T08:07:35.098Z,73.60
2018-03-14T08:10:03.477Z,73.40
2018-03-14T08:12:31.873Z,73.40
2018-03-14T08:15:00.233Z,72.90
2018-03-14T08:17:28.630Z,72.10
2018-03-14T08:19:57.021Z,71.10
2018-03-14T08:22:25.709Z,70.70
2018-03-14T08:24:54.068Z,70.80
2018-03-14T08:27:22.437Z,69.70
2018-03-14T08:29:50.833Z,68.40
2018-03-14T08:32:19.198Z,67.70
2018-03-14T08:34:47.589Z,67.70
2018-03-14T08:37:15.970Z,67.70
2018-03-14T08:39:44.547Z,67.90
2018-03-14T08:42:12.914Z,68.00
2018-03-14T08:44:41.301Z,68.10
2018-03-14T08:47:09.684Z,68.10
2018-03-14T08:49:38.050Z,68.40
2018-03-14T08:52:06.458Z,68.80
2018-03-14T08:54:34.837Z,68.10
2018-03-14T08:57:03.488Z,67.60
2018-03-14T08:59:31.870Z,67.80
2018-03-14T09:02:00.249Z,67.10
2018-03-14T09:04:28.650Z,66.10
2018-03-14T09:06:57.073Z,66.00
2018-03-14T09:09:26.239Z,65.20
2018-03-14T09:11:54.602Z,65.20
2018-03-14T09:14:23.268Z,65.60
2018-03-14T09:16:51.638Z,65.10
2018-03-14T09:19:20.011Z,65.40
2018-03-14T09:21:48.416Z,65.70
2018-03-14T09:24:16.790Z,66.30
2018-03-14T09:26:45.194Z,67.00
2018-03-14T09:29:13.577Z,67.50
2018-03-14T09:31:42.185Z,68.00
2018-03-14T09:34:10.565Z,68.40
2018-03-14T09:36:39.700Z,67.70
2018-03-14T09:39:08.114Z,67.50
2018-03-14T09:41:36.483Z,67.60
2018-03-14T09:44:04.875Z,67.40
2018-03-14T09:46:33.249Z,66.20
2018-03-14T09:49:01.894Z,66.30
2018-03-14T09:51:30.274Z,64.40
2018-03-14T09:53:58.651Z,63.70
2018-03-14T09:56:27.041Z,63.60
2018-03-14T09:58:55.421Z,63.00
2018-03-14T10:01:23.817Z,61.90
2018-03-14T10:03:52.191Z,62.50
2018-03-14T10:06:20.593Z,62.30
2018-03-14T10:08:48.960Z,61.80
2018-03-14T10:11:17.361Z,61.80
2018-03-14T10:13:45.753Z,61.90
2018-03-14T10:16:14.887Z,60.10
2018-03-14T10:18:43.279Z,60.10
2018-03-14T10:21:11.646Z,60.00
2018-03-14T10:23:40.074Z,59.60
2018-03-14T10:26:09.230Z,58.60
2018-03-14T10:28:37.593Z,58.60
2018-03-14T10:31:05.978Z,59.20
2018-03-14T10:33:34.370Z,56.60
2018-03-14T10:36:02.782Z,54.90
2018-03-14T10:38:31.937Z,52.20
2018-03-14T10:41:00.402Z,52.20
2018-03-14T10:43:28.867Z,51.40
2018-03-14T10:45:57.257Z,51.50
2018-03-14T10:48:25.651Z,52.40
2018-03-14T10:50:54.038Z,52.20
2018-03-14T10:53:22.448Z,52.20
2018-03-14T10:55:50.818Z,53.90
2018-03-14T10:58:20.899Z,56.20
2018-03-14T11:00:54.838Z,56.20
2018-03-14T11:03:29.031Z,56.20
2018-03-14T11:05:57.459Z,56.50
2018-03-14T11:08:26.768Z,57.60
2018-03-14T11:10:56.127Z,57.50
2018-03-14T11:13:24.474Z,57.50
2018-03-14T11:15:52.864Z,52.50
2018-03-14T11:18:21.242Z,48.20
2018-03-14T11:20:50.135Z,46.60
2018-03-14T11:23:18.513Z,45.00
2018-03-14T11:25:46.893Z,44.60
2018-03-14T11:28:15.298Z,44.00
2018-03-14T11:30:43.689Z,43.90
2018-03-14T11:33:12.853Z,45.10
2018-03-14T11:35:41.231Z,44.60
2018-03-14T11:38:10.011Z,44.90
2018-03-14T11:40:38.397Z,46.50
2018-03-14T11:43:06.783Z,47.60
2018-03-14T11:45:35.175Z,47.90
2018-03-14T11:48:03.550Z,48.90
2018-03-14T11:50:31.954Z,49.70
2018-03-14T11:53:01.090Z,49.70
2018-03-14T11:55:29.489Z,49.60
2018-03-14T11:57:57.904Z,49.60
2018-03-14T12:00:26.282Z,48.10
2018-03-14T12:02:54.683Z,47.00
2018-03-14T12:05:23.060Z,42.70
2018-03-14T12:07:52.009Z,38.60
2018-03-14T12:10:20.414Z,35.70
2018-03-14T12:12:49.562Z,35.30
2018-03-14T12:15:17.954Z,35.30
2018-03-14T12:17:46.969Z,36.10
2018-03-14T12:20:15.522Z,37.00
2018-03-14T12:22:44.334Z,38.40
2018-03-14T12:25:12.878Z,38.20
2018-03-14T12:27:41.434Z,38.70
2018-03-14T12:30:09.816Z,38.90
2018-03-14T12:32:38.230Z,38.30
2018-03-14T12:35:06.697Z,39.00
2018-03-14T12:37:35.285Z,39.80
2018-03-14T12:40:03.696Z,41.30
2018-03-14T12:42:33.382Z,43.80
2018-03-14T12:45:01.757Z,43.70
2018-03-14T12:47:30.141Z,43.90
2018-03-14T12:49:58.542Z,44.10
2018-03-14T12:52:26.930Z,43.50
2018-03-14T12:54:55.339Z,42.10
2018-03-14T12:57:23.790Z,40.50
2018-03-14T12:59:52.643Z,41.40
2018-03-14T13:02:21.032Z,40.80
2018-03-14T13:04:49.400Z,38.90
2018-03-14T13:07:17.798Z,39.10
2018-03-14T13:09:46.170Z,39.70
2018-03-14T13:12:14.569Z,40.00
2018-03-14T13:14:42.949Z,41.00
2018-03-14T13:17:11.446Z,42.70
2018-03-14T13:19:40.588Z,43.50
2018-03-14T13:22:08.978Z,43.50
2018-03-14T13:24:37.380Z,40.90
2018-03-14T13:27:05.759Z,37.50
2018-03-14T13:29:34.178Z,32.90
2018-03-14T13:32:02.550Z,29.20
2018-03-14T13:34:30.969Z,26.50
2018-03-14T13:36:59.338Z,23.40
2018-03-14T13:39:27.751Z,22.70
2018-03-14T13:41:56.150Z,22.40
2018-03-14T13:44:25.402Z,22.10
2018-03-14T13:46:53.798Z,22.10
2018-03-14T13:49:22.173Z,23.30
2018-03-14T13:51:50.591Z,22.40
2018-03-14T13:54:19.732Z,21.40
2018-03-14T13:56:48.109Z,21.40
2018-03-14T13:59:16.517Z,21.00
2018-03-14T14:01:44.882Z,19.90
2018-03-14T14:04:13.274Z,18.80
2018-03-14T14:06:41.650Z,18.40
2018-03-14T14:09:10.082Z,19.80
2018-03-14T14:11:38.484Z,21.80
2018-03-14T14:14:06.863Z,23.80
2018-03-14T14:16:35.270Z,25.70
2018-03-14T14:19:04.547Z,27.50
2018-03-14T14:21:33.031Z,29.00
2018-03-14T14:24:02.222Z,32.30
2018-03-14T14:26:30.655Z,32.30
2018-03-14T14:28:59.041Z,33.20
2018-03-14T14:31:27.461Z,34.20
2018-03-14T14:33:56.036Z,35.30
2018-03-14T14:36:24.402Z,36.20
2018-03-14T14:38:53.064Z,37.70
2018-03-14T14:41:21.441Z,39.20
2018-03-14T14:43:50.773Z,41.00
2018-03-14T14:46:19.341Z,40.90
2018-03-14T14:48:47.764Z,40.80
2018-03-14T14:51:16.159Z,40.50
2018-03-14T14:53:44.537Z,40.50
2018-03-14T14:56:12.951Z,40.90
2018-03-14T14:58:41.350Z,41.40
2018-03-14T15:01:09.878Z,41.10
2018-03-14T15:03:38.982Z,40.80
2018-03-14T15:06:07.407Z,41.10
2018-03-14T15:08:35.918Z,40.80
2018-03-14T15:11:04.377Z,40.70
2018-03-14T15:13:33.063Z,40.70
2018-03-14T15:16:01.847Z,41.00
2018-03-14T15:18:30.587Z,40.80
2018-03-14T15:20:59.887Z,40.20
2018-03-14T15:23:29.032Z,39.70
2018-03-14T15:25:57.563Z,39.60
2018-03-14T15:28:26.788Z,40.10
2018-03-14T15:30:55.603Z,40.00
2018-03-14T15:33:24.186Z,40.80
2018-03-14T15:35:52.838Z,42.10
2018-03-14T15:38:21.241Z,42.50
2018-03-14T15:40:49.624Z,42.90
2018-03-14T15:43:18.039Z,43.30
2018-03-14T15:45:46.511Z,43.00
2018-03-14T15:48:15.408Z,43.30
2018-03-14T15:50:44.572Z,44.00
2018-03-14T15:53:13.359Z,44.00
2018-03-14T15:55:41.742Z,43.70
2018-03-14T15:58:10.334Z,43.90
2018-03-14T16:00:38.790Z,44.30
2018-03-14T16:03:07.298Z,44.70
2018-03-14T16:05:35.719Z,44.80
2018-03-14T16:08:04.970Z,45.40
2018-03-14T16:10:33.656Z,45.30
2018-03-14T16:13:02.370Z,46.10
2018-03-14T16:15:30.755Z,46.40
2018-03-14T16:17:59.339Z,46.80
2018-03-14T16:20:27.707Z,47.60
2018-03-14T16:22:56.144Z,47.20
2018-03-14T16:25:24.565Z,47.50
2018-03-14T16:27:53.125Z,47.90
2018-03-14T16:30:21.503Z,48.10
2018-03-14T16:32:49.910Z,48.20
2018-03-14T16:35:18.310Z,48.40
2018-03-14T16:37:47.538Z,49.20
2018-03-14T16:40:15.983Z,49.20
2018-03-14T16:42:45.131Z,50.50
2018-03-14T16:45:13.921Z,50.50
2018-03-14T16:47:42.456Z,51.30
2018-03-14T16:50:11.916Z,52.00
2018-03-14T16:52:41.132Z,52.30
2018-03-14T16:55:09.742Z,52.20
2018-03-14T16:57:39.047Z,52.70
2018-03-14T17:00:07.506Z,52.70
2018-03-14T17:02:35.971Z,53.00
2018-03-14T17:05:04.440Z,54.20
2018-03-14T17:07:33.338Z,54.60
2018-03-14T17:10:03.026Z,55.40
2018-03-14T17:12:31.610Z,55.30
2018-03-14T17:15:00.501Z,55.50
2018-03-14T17:17:28.906Z,55.80
2018-03-14T17:19:57.464Z,56.20
2018-03-14T17:22:26.166Z,56.60
2018-03-14T17:24:55.242Z,56.70
2018-03-14T17:27:23.723Z,56.90
2018-03-14T17:29:52.350Z,57.60
2018-03-14T17:32:20.887Z,57.90
2018-03-14T17:34:49.537Z,58.10
2018-03-14T17:37:17.979Z,58.50
2018-03-14T17:39:46.842Z,58.70
2018-03-14T17:42:16.439Z,59.40
2018-03-14T17:44:45.339Z,59.40
2018-03-14T17:47:13.774Z,59.70
2018-03-14T17:49:42.939Z,60.10
2018-03-14T17:52:11.391Z,60.10
2018-03-14T17:54:39.789Z,60.50
2018-03-14T17:57:08.173Z,60.50
2018-03-14T17:59:36.872Z,60.70
2018-03-14T18:02:05.402Z,60.60
2018-03-14T18:04:33.802Z,60.80
2018-03-14T18:07:02.333Z,60.70
2018-03-14T18:09:31.732Z,61.20
2018-03-14T18:12:00.246Z,61.20
2018-03-14T18:14:28.897Z,61.20
2018-03-14T18:16:58.251Z,61.40
2018-03-14T18:19:26.821Z,61.40
2018-03-14T18:21:55.237Z,61.50
2018-03-14T18:24:23.643Z,61.70
2018-03-14T18:26:53.114Z,61.90
2018-03-14T18:29:21.984Z,61.90
2018-03-14T18:31:50.575Z,62.20
2018-03-14T18:34:18.962Z,62.20
2018-03-14T18:36:47.337Z,62.50
2018-03-14T18:39:15.712Z,62.70
2018-03-14T18:41:44.138Z,62.60
2018-03-14T18:44:13.275Z,63.00
2018-03-14T18:46:41.698Z,63.00
2018-03-14T18:49:10.230Z,63.00
2018-03-14T18:51:39.233Z,62.90
2018-03-14T18:54:08.057Z,63.20
2018-03-14T18:56:36.605Z,63.20
2018-03-14T18:59:05.033Z,63.40
2018-03-14T19:01:34.284Z,63.60
2018-03-14T19:04:02.788Z,63.50
2018-03-14T19:06:31.549Z,64.00
2018-03-14T19:09:00.647Z,64.00
2018-03-14T19:11:29.231Z,64.10
2018-03-14T19:13:57.650Z,64.40
2018-03-14T19:16:26.398Z,64.50
2018-03-14T19:18:54.848Z,65.00
2018-03-14T19:21:23.768Z,65.20
2018-03-14T19:23:52.328Z,65.30
2018-03-14T19:26:21.487Z,65.00
2018-03-14T19:28:50.305Z,64.80
2018-03-14T19:31:18.925Z,65.10
2018-03-14T19:33:47.759Z,65.10
2018-03-14T19:36:16.500Z,65.00
2018-03-14T19:38:45.464Z,64.90
2018-03-14T19:41:15.601Z,64.90
2018-03-14T19:43:44.970Z,65.10
2018-03-14T19:46:14.052Z,65.30
2018-03-14T19:48:43.823Z,65.10
2018-03-14T19:51:12.835Z,65.10
2018-03-14T19:53:41.836Z,65.30
2018-03-14T19:56:10.362Z,65.10
2018-03-14T19:58:39.421Z,65.00
2018-03-14T20:01:08.473Z,65.40
2018-03-14T20:03:37.465Z,65.40
2018-03-14T20:06:06.378Z,65.60
2018-03-14T20:08:35.860Z,65.60
2018-03-14T20:11:06.360Z,65.70
2018-03-14T20:13:35.379Z,65.60
2018-03-14T20:16:04.652Z,65.50
2018-03-14T20:18:33.562Z,65.70
2018-03-14T20:21:02.243Z,65.70
2018-03-14T20:23:31.200Z,66.00
2018-03-14T20:25:59.633Z,65.90
2018-03-14T20:28:28.418Z,66.00
2018-03-14T20:30:56.999Z,66.00
2018-03-14T20:33:25.941Z,66.20
2018-03-14T20:35:54.915Z,66.20
2018-03-14T20:38:24.490Z,66.30
2018-03-14T20:40:53.481Z,66.30
2018-03-14T20:43:22.183Z,66.40
2018-03-14T20:45:52.799Z,67.00
2018-03-14T20:48:21.975Z,66.30
2018-03-14T20:50:50.871Z,66.40
2018-03-14T20:53:22.232Z,66.90
2018-03-14T20:55:51.185Z,66.80
2018-03-14T20:58:20.086Z,67.10
2018-03-14T21:00:49.007Z,67.20
2018-03-14T21:03:18.615Z,67.50
2018-03-14T21:05:48.262Z,67.50
2018-03-14T21:08:17.215Z,67.50
2018-03-14T21:10:46.006Z,67.90
2018-03-14T21:13:15.911Z,68.00
2018-03-14T21:15:44.647Z,67.90
2018-03-14T21:18:13.153Z,68.10
2018-03-14T21:20:42.168Z,68.40
2018-03-14T21:23:11.164Z,68.70
2018-03-14T21:25:40.028Z,68.90
2018-03-14T21:28:09.043Z,69.10
2018-03-14T21:30:37.971Z,69.20
2018-03-14T21:33:07.143Z,69.30
2018-03-14T21:35:35.519Z,69.30
2018-03-14T21:38:03.950Z,69.40
2018-03-14T21:40:33.803Z,69.40
2018-03-14T21:43:02.778Z,69.40
2018-03-14T21:45:31.726Z,69.70
2018-03-14T21:48:00.502Z,69.80
2018-03-14T21:50:29.580Z,70.00
2018-03-14T21:52:58.759Z,70.50
2018-03-14T21:55:39.122Z,70.50
2018-03-14T21:58:07.553Z,70.80
2018-03-14T22:00:36.746Z,71.40
2018-03-14T22:03:05.333Z,71.30
2018-03-14T22:05:33.751Z,71.50
2018-03-14T22:08:02.122Z,71.50
2018-03-14T22:10:30.502Z,72.00
2018-03-14T22:12:59.042Z,72.40
2018-03-14T22:15:28.219Z,72.80
2018-03-14T22:17:56.624Z,72.80
2018-03-14T22:20:25.073Z,72.90
2018-03-14T22:22:53.988Z,72.90
2018-03-14T22:25:23.250Z,73.30
2018-03-14T22:27:51.621Z,73.20
2018-03-14T22:30:20.018Z,73.50
2018-03-14T22:32:48.401Z,73.50
2018-03-14T22:35:16.804Z,73.70
2018-03-14T22:37:45.181Z,73.60
2018-03-14T22:40:13.738Z,73.60
2018-03-14T22:42:42.228Z,73.90
2018-03-14T22:45:10.622Z,73.80
2018-03-14T22:47:40.532Z,73.80
2018-03-14T22:50:08.902Z,73.80
2018-03-14T22:52:37.342Z,73.70
2018-03-14T22:55:06.623Z,73.60
2018-03-14T22:57:35.811Z,73.70
2018-03-14T23:00:04.982Z,73.70
2018-03-14T23:02:33.351Z,73.70
2018-03-14T23:05:01.759Z,73.80
2018-03-14T23:07:30.146Z,73.80
2018-03-14T23:09:59.340Z,73.80
2018-03-14T23:12:28.482Z,73.60
2018-03-14T23:14:57.171Z,73.60
2018-03-14T23:17:25.537Z,73.60
2018-03-14T23:19:53.911Z,73.60
2018-03-14T23:22:22.301Z,73.80
2018-03-14T23:24:50.666Z,74.10
2018-03-14T23:27:19.060Z,74.00
2018-03-14T23:29:47.438Z,74.00
2018-03-14T23:32:15.842Z,73.90
2018-03-14T23:34:44.221Z,73.80
2018-03-14T23:37:12.636Z,73.70
2018-03-14T23:39:41.013Z,73.60
2018-03-14T23:42:10.154Z,73.60
2018-03-14T23:44:38.550Z,73.50
2018-03-14T23:47:06.918Z,73.80
2018-03-14T23:49:35.332Z,73.60
2018-03-14T23:52:03.712Z,73.60
2018-03-14T23:54:32.089Z,73.80
2018-03-14T23:57:00.486Z,73.90
2018-03-14T23:59:29.624Z,73.70
